createdAt,value
2022-10-14T00:01:16.415Z,42.00
2022-10-14T00:03:44.063Z,28.23
2022-10-14T00:06:14.544Z,26.83
2022-10-14T00:08:42.548Z,28.27
2022-10-14T00:11:16.046Z,29.60
2022-10-14T00:13:43.459Z,29.30
2022-10-14T00:16:25.488Z,31.77
2022-10-14T00:18:52.519Z,28.40
2022-10-14T00:21:19.990Z,26.83
2022-10-14T00:23:47.559Z,26.70
2022-10-14T00:26:23.152Z,31.53
2022-10-14T00:28:51.014Z,35.67
2022-10-14T00:31:20.717Z,34.60
2022-10-14T00:33:48.050Z,29.10
2022-10-14T00:36:17.570Z,33.67
2022-10-14T00:38:45.862Z,40.03
2022-10-14T00:41:16.485Z,38.23
2022-10-14T00:44:24.525Z,37.50
2022-10-14T00:46:51.773Z,33.77
2022-10-14T00:49:29.383Z,31.73
2022-10-14T00:52:02.229Z,42.23
2022-10-14T00:54:37.766Z,37.00
2022-10-14T00:57:05.547Z,37.63
2022-10-14T00:59:34.424Z,36.97
2022-10-14T01:02:01.378Z,41.67
2022-10-14T01:04:28.354Z,40.93
2022-10-14T01:07:18.896Z,42.37
2022-10-14T01:10:31.302Z,31.80
2022-10-14T01:13:17.682Z,41.03
2022-10-14T01:16:29.139Z,33.63
2022-10-14T01:20:01.549Z,29.33
2022-10-14T01:22:43.191Z,33.50
2022-10-14T01:25:36.246Z,33.53
2022-10-14T01:28:25.169Z,29.70
2022-10-14T01:31:18.012Z,33.30
2022-10-14T01:33:48.179Z,29.00
2022-10-14T01:36:41.791Z,32.10
2022-10-14T01:39:35.350Z,33.40
2022-10-14T01:42:15.611Z,31.70
2022-10-14T01:44:46.610Z,36.37
2022-10-14T01:47:17.154Z,34.67
2022-10-14T01:49:55.243Z,35.47
2022-10-14T01:52:27.892Z,29.70
2022-10-14T01:54:59.956Z,33.67
2022-10-14T01:57:31.714Z,31.67
2022-10-14T01:59:59.552Z,34.80
2022-10-14T02:02:26.685Z,38.03
2022-10-14T02:04:53.653Z,31.63
2022-10-14T02:07:31.457Z,37.47
2022-10-14T02:10:41.252Z,32.27
2022-10-14T02:13:34.818Z,40.43
2022-10-14T02:16:38.874Z,35.30
2022-10-14T02:19:35.683Z,29.93
2022-10-14T02:22:10.145Z,29.30
2022-10-14T02:24:44.791Z,35.23
2022-10-14T02:27:15.308Z,30.70
2022-10-14T02:29:45.736Z,32.20
2022-10-14T02:32:16.999Z,43.00
2022-10-14T02:34:48.302Z,38.17
2022-10-14T02:37:16.557Z,36.03
2022-10-14T02:39:50.414Z,36.90
2022-10-14T02:42:18.803Z,32.77
2022-10-14T02:45:00.046Z,33.37
2022-10-14T02:47:27.855Z,33.23
2022-10-14T02:49:55.158Z,43.50
2022-10-14T02:52:22.375Z,31.63
2022-10-14T02:54:49.802Z,37.13
2022-10-14T02:57:16.999Z,38.30
2022-10-14T02:59:43.840Z,39.27
2022-10-14T03:02:10.919Z,29.90
2022-10-14T03:04:37.928Z,38.97
2022-10-14T03:07:05.502Z,39.93
2022-10-14T03:09:32.452Z,33.53
2022-10-14T03:12:00.137Z,35.90
2022-10-14T03:14:27.111Z,41.83
2022-10-14T03:16:54.055Z,33.40
2022-10-14T03:19:20.984Z,31.33
2022-10-14T03:21:49.167Z,37.17
2022-10-14T03:24:16.075Z,35.87
2022-10-14T03:26:42.978Z,33.27
2022-10-14T03:29:09.888Z,36.00
2022-10-14T03:31:36.868Z,39.53
2022-10-14T03:34:03.783Z,34.20
2022-10-14T03:36:30.689Z,36.83
2022-10-14T03:38:57.576Z,36.40
2022-10-14T03:41:24.471Z,32.53
2022-10-14T03:43:51.323Z,41.73
2022-10-14T03:46:18.236Z,42.67
2022-10-14T03:48:45.150Z,40.03
2022-10-14T03:51:12.102Z,38.17
2022-10-14T03:53:39.092Z,34.87
2022-10-14T03:56:06.364Z,38.40
2022-10-14T03:58:33.299Z,36.40
2022-10-14T04:01:00.209Z,34.77
2022-10-14T04:03:27.196Z,38.57
2022-10-14T04:05:54.201Z,37.67
2022-10-14T04:08:21.148Z,40.17
2022-10-14T04:10:55.989Z,34.77
2022-10-14T04:13:23.081Z,35.50
2022-10-14T04:15:50.033Z,35.00
2022-10-14T04:18:16.971Z,34.73
2022-10-14T04:20:44.000Z,34.63
2022-10-14T04:23:11.064Z,34.60
2022-10-14T04:25:40.017Z,37.13
2022-10-14T04:28:07.218Z,33.90
2022-10-14T04:30:34.226Z,34.63
2022-10-14T04:33:01.227Z,35.87
2022-10-14T04:35:28.165Z,33.17
2022-10-14T04:37:56.428Z,34.60
2022-10-14T04:40:26.144Z,30.43
2022-10-14T04:42:57.400Z,40.37
2022-10-14T04:45:25.464Z,33.40
2022-10-14T04:47:52.874Z,38.13
2022-10-14T04:50:20.185Z,36.00
2022-10-14T04:52:47.180Z,31.87
2022-10-14T04:55:14.138Z,32.90
2022-10-14T04:57:43.805Z,37.70
2022-10-14T05:00:14.833Z,38.93
2022-10-14T05:02:41.955Z,35.23
2022-10-14T05:05:09.720Z,37.27
2022-10-14T05:07:38.916Z,42.00
2022-10-14T05:10:06.435Z,39.90
2022-10-14T05:12:33.604Z,36.07
2022-10-14T05:15:00.837Z,37.07
2022-10-14T05:17:27.968Z,31.83
2022-10-14T05:19:55.248Z,34.20
2022-10-14T05:22:22.425Z,33.53
2022-10-14T05:24:49.580Z,35.47
2022-10-14T05:27:16.820Z,34.83
2022-10-14T05:29:43.856Z,35.70
2022-10-14T05:32:10.844Z,37.17
2022-10-14T05:34:37.845Z,36.23
2022-10-14T05:37:04.826Z,33.83
2022-10-14T05:39:31.676Z,38.80
2022-10-14T05:41:58.656Z,32.33
2022-10-14T05:44:25.582Z,37.83
2022-10-14T05:46:52.498Z,34.50
2022-10-14T05:49:19.309Z,35.80
2022-10-14T05:51:46.251Z,35.70
2022-10-14T05:54:13.215Z,37.97
2022-10-14T05:56:40.145Z,40.10
2022-10-14T05:59:07.108Z,35.93
2022-10-14T06:01:36.547Z,35.23
2022-10-14T06:04:03.549Z,32.13
2022-10-14T06:06:30.610Z,32.37
2022-10-14T06:08:57.642Z,36.47
2022-10-14T06:11:24.637Z,35.00
2022-10-14T06:13:52.883Z,28.60
2022-10-14T06:16:19.742Z,31.33
2022-10-14T06:18:50.990Z,26.57
2022-10-14T06:21:20.521Z,39.20
2022-10-14T06:23:47.509Z,29.43
2022-10-14T06:26:14.595Z,33.30
2022-10-14T06:28:41.485Z,35.63
2022-10-14T06:31:08.721Z,31.53
2022-10-14T06:33:36.279Z,33.20
2022-10-14T06:36:04.916Z,30.13
2022-10-14T06:38:31.974Z,25.43
2022-10-14T06:40:59.024Z,27.93
2022-10-14T06:43:25.954Z,26.00
2022-10-14T06:45:52.892Z,29.43
2022-10-14T06:48:19.835Z,23.90
2022-10-14T06:50:46.670Z,22.23
2022-10-14T06:53:13.566Z,28.00
2022-10-14T06:55:40.507Z,25.70
2022-10-14T06:58:07.468Z,22.00
2022-10-14T07:00:34.553Z,23.27
2022-10-14T07:03:01.481Z,24.07
2022-10-14T07:05:28.420Z,19.67
2022-10-14T07:07:56.966Z,18.67
2022-10-14T07:10:23.968Z,14.53
2022-10-14T07:12:55.127Z,17.40
2022-10-14T07:15:22.065Z,17.43
2022-10-14T07:17:48.983Z,11.90
2022-10-14T07:20:16.049Z,10.90
2022-10-14T07:22:43.216Z,10.43
2022-10-14T07:25:10.817Z,8.17
2022-10-14T07:27:37.748Z,8.37
2022-10-14T07:30:06.303Z,8.63
2022-10-14T07:32:36.997Z,8.53
2022-10-14T07:35:04.962Z,7.80
2022-10-14T07:37:31.951Z,8.00
2022-10-14T07:39:59.218Z,8.00
2022-10-14T07:42:26.205Z,6.40
2022-10-14T07:44:54.453Z,6.67
2022-10-14T07:47:22.185Z,6.90
2022-10-14T07:49:49.416Z,5.80
2022-10-14T07:52:16.506Z,7.53
2022-10-14T07:54:43.559Z,4.97
2022-10-14T07:57:10.588Z,5.77
2022-10-14T07:59:37.600Z,5.97
2022-10-14T08:02:04.717Z,6.40
2022-10-14T08:04:31.874Z,4.70
2022-10-14T08:06:58.987Z,5.17
2022-10-14T08:11:53.704Z,6.93
2022-10-14T08:14:20.628Z,6.00
2022-10-14T08:16:47.697Z,5.47
2022-10-14T08:19:15.083Z,5.23
2022-10-14T08:21:43.406Z,4.87
2022-10-14T08:24:10.845Z,9.73
2022-10-14T08:26:53.301Z,3.90
2022-10-14T08:29:22.630Z,3.83
2022-10-14T08:31:50.363Z,3.27
2022-10-14T08:34:21.077Z,7.83
2022-10-14T08:36:52.377Z,10.50
2022-10-14T08:39:20.840Z,3.70
2022-10-14T08:42:17.748Z,2.70
2022-10-14T08:45:25.146Z,2.83
2022-10-14T08:47:55.982Z,2.17
2022-10-14T08:50:42.075Z,3.27
2022-10-14T08:53:22.702Z,2.73
2022-10-14T08:55:56.367Z,2.90
2022-10-14T08:58:54.599Z,2.60
2022-10-14T09:01:33.518Z,2.73
2022-10-14T09:04:04.750Z,2.80
2022-10-14T09:06:35.123Z,2.20
2022-10-14T09:09:24.102Z,2.90
2022-10-14T09:11:59.495Z,1.90
2022-10-14T09:14:39.368Z,3.90
2022-10-14T09:17:17.826Z,2.00
2022-10-14T09:19:54.028Z,1.77
2022-10-14T09:22:21.191Z,1.60
2022-10-14T09:24:51.154Z,2.27
2022-10-14T09:27:22.672Z,3.60
2022-10-14T09:30:14.710Z,4.53
2022-10-14T09:32:45.050Z,3.30
2022-10-14T09:35:33.565Z,2.37
2022-10-14T09:38:00.849Z,1.80
2022-10-14T09:40:36.797Z,1.60
2022-10-14T09:43:18.337Z,4.23
2022-10-14T09:46:03.149Z,1.60
2022-10-14T09:48:49.300Z,2.30
2022-10-14T09:51:29.484Z,3.43
2022-10-14T09:53:58.768Z,1.50
2022-10-14T09:56:42.046Z,1.57
2022-10-14T09:59:21.282Z,3.37
2022-10-14T10:01:55.119Z,1.67
2022-10-14T10:04:47.671Z,1.33
2022-10-14T10:07:33.233Z,2.27
2022-10-14T10:10:02.253Z,4.33
2022-10-14T10:12:34.833Z,9.23
2022-10-14T10:15:04.755Z,1.40
2022-10-14T10:17:36.301Z,2.23
2022-10-14T10:20:33.349Z,1.40
2022-10-14T10:23:26.957Z,1.60
2022-10-14T10:25:53.807Z,6.83
2022-10-14T10:28:32.033Z,1.17
2022-10-14T10:31:29.079Z,1.40
2022-10-14T10:34:12.833Z,1.20
2022-10-14T10:36:58.774Z,2.50
2022-10-14T10:39:53.775Z,1.20
2022-10-14T10:42:58.047Z,1.00
2022-10-14T10:45:53.775Z,1.20
2022-10-14T10:48:36.238Z,1.07
2022-10-14T10:51:49.817Z,1.40
2022-10-14T10:54:39.086Z,2.33
2022-10-14T10:57:19.913Z,1.20
2022-10-14T11:00:13.506Z,1.53
2022-10-14T11:03:44.809Z,3.90
2022-10-14T11:07:07.967Z,1.00
2022-10-14T11:10:06.038Z,3.90
2022-10-14T11:13:11.980Z,2.17
2022-10-14T11:31:27.334Z,0.90
2022-10-14T11:34:24.906Z,0.90
2022-10-14T11:37:10.217Z,3.90
2022-10-14T11:39:50.436Z,1.83
2022-10-14T11:42:47.519Z,0.90
2022-10-14T11:45:49.112Z,2.60
2022-10-14T11:48:52.779Z,1.77
2022-10-14T11:52:00.512Z,7.53
2022-10-14T11:54:54.080Z,1.40
2022-10-14T11:57:33.362Z,0.80
2022-10-14T12:03:13.477Z,0.90
2022-10-14T12:06:11.264Z,0.90
2022-10-14T12:09:09.070Z,2.80
2022-10-14T12:11:56.346Z,2.20
2022-10-14T12:14:46.584Z,1.10
2022-10-14T12:17:36.118Z,1.43
2022-10-14T12:20:16.645Z,1.00
2022-10-14T12:22:45.212Z,1.30
2022-10-14T12:25:17.555Z,2.90
2022-10-14T12:27:45.024Z,1.00
2022-10-14T12:30:36.959Z,1.20
2022-10-14T12:33:09.801Z,1.20
2022-10-14T12:35:51.184Z,4.73
2022-10-14T12:38:20.428Z,1.80
2022-10-14T12:40:49.566Z,1.70
2022-10-14T12:43:26.613Z,2.00
2022-10-14T12:46:14.166Z,2.40
2022-10-14T12:48:50.933Z,2.70
2022-10-14T12:51:24.198Z,3.17
2022-10-14T12:54:11.145Z,3.10
2022-10-14T12:56:56.971Z,3.03
2022-10-14T12:59:53.018Z,3.13
2022-10-14T13:02:46.488Z,4.70
2022-10-14T13:05:44.386Z,3.10
2022-10-14T13:08:31.777Z,3.63
2022-10-14T13:11:27.096Z,3.80
2022-10-14T13:14:00.698Z,3.47
2022-10-14T13:16:58.458Z,5.10
2022-10-14T13:19:44.757Z,4.13
2022-10-14T13:22:38.838Z,3.97
2022-10-14T13:25:15.730Z,4.13
2022-10-14T13:28:01.637Z,7.30
2022-10-14T13:30:52.607Z,4.00
2022-10-14T13:33:53.978Z,4.33
2022-10-14T13:36:53.324Z,4.17
2022-10-14T13:39:20.431Z,3.67
2022-10-14T13:41:51.983Z,3.87
2022-10-14T13:44:22.368Z,5.03
2022-10-14T13:46:50.747Z,4.07
2022-10-14T13:49:28.248Z,4.50
2022-10-14T13:52:05.034Z,11.63
2022-10-14T13:54:33.389Z,4.20
2022-10-14T14:00:44.455Z,8.93
2022-10-14T14:03:23.550Z,3.80
2022-10-14T14:05:51.855Z,6.40
2022-10-14T14:08:41.039Z,7.50
2022-10-14T14:11:18.475Z,4.50
2022-10-14T14:14:23.149Z,5.10
2022-10-14T14:16:59.243Z,5.50
2022-10-14T14:19:35.206Z,8.73
2022-10-14T14:22:24.761Z,5.17
2022-10-14T14:24:53.028Z,5.80
2022-10-14T14:27:26.746Z,6.50
2022-10-14T14:29:55.214Z,6.57
2022-10-14T14:32:28.665Z,6.23
2022-10-14T14:34:55.656Z,6.07
2022-10-14T14:37:53.397Z,6.23
2022-10-14T14:40:28.591Z,5.37
2022-10-14T14:43:02.868Z,5.90
2022-10-14T14:45:34.479Z,6.60
2022-10-14T14:48:08.349Z,13.60
2022-10-14T14:50:43.132Z,5.83
2022-10-14T14:53:21.741Z,5.70
2022-10-14T14:56:16.515Z,5.93
2022-10-14T14:58:50.736Z,5.63
2022-10-14T15:01:23.719Z,5.13
2022-10-14T15:04:13.162Z,5.73
2022-10-14T15:06:51.639Z,6.17
2022-10-14T15:09:35.843Z,6.20
2022-10-14T15:12:06.623Z,6.53
2022-10-14T15:14:49.443Z,8.13
2022-10-14T15:17:40.628Z,7.57
2022-10-14T15:20:29.217Z,11.43
2022-10-14T15:22:56.513Z,6.77
2022-10-14T15:25:28.073Z,6.57
2022-10-14T15:28:00.071Z,8.20
2022-10-14T15:30:51.824Z,6.90
2022-10-14T15:33:26.713Z,11.73
2022-10-14T15:36:02.178Z,9.07
2022-10-14T15:40:58.256Z,7.03
2022-10-14T15:43:27.104Z,8.90
2022-10-14T15:46:14.619Z,7.10
2022-10-14T15:48:55.182Z,6.87
2022-10-14T15:51:23.667Z,7.13
2022-10-14T15:53:51.944Z,6.70
2022-10-14T15:56:21.322Z,7.53
2022-10-14T15:58:49.199Z,7.47
2022-10-14T16:01:35.940Z,7.40
2022-10-14T16:04:03.896Z,7.63
2022-10-14T16:06:32.789Z,7.13
2022-10-14T16:08:59.743Z,6.87
2022-10-14T16:11:31.218Z,7.87
2022-10-14T16:13:58.296Z,6.40
2022-10-14T16:16:33.058Z,6.47
2022-10-14T16:19:02.558Z,8.37
2022-10-14T16:21:30.031Z,6.60
2022-10-14T16:23:58.897Z,5.17
2022-10-14T16:26:26.378Z,6.47
2022-10-14T16:28:53.672Z,7.73
2022-10-14T16:31:21.465Z,11.60
2022-10-14T16:33:52.665Z,6.13
2022-10-14T16:36:19.838Z,6.70
2022-10-14T16:38:46.949Z,5.10
2022-10-14T16:41:13.906Z,4.70
2022-10-14T16:43:40.916Z,5.80
2022-10-14T16:46:10.490Z,5.13
2022-10-14T16:48:40.662Z,4.90
2022-10-14T16:51:07.865Z,7.77
2022-10-14T16:53:40.660Z,5.13
2022-10-14T16:56:32.960Z,5.20
2022-10-14T16:59:01.571Z,5.37
2022-10-14T17:01:29.242Z,5.40
2022-10-14T17:03:56.940Z,6.00
2022-10-14T17:06:25.318Z,7.20
2022-10-14T17:08:52.733Z,7.23
2022-10-14T17:11:20.653Z,6.93
2022-10-14T17:13:50.742Z,6.10
2022-10-14T17:16:17.843Z,5.10
2022-10-14T17:18:44.771Z,5.50
2022-10-14T17:21:12.490Z,4.97
2022-10-14T17:23:44.028Z,5.17
2022-10-14T17:26:18.423Z,4.73
2022-10-14T17:28:47.257Z,4.33
2022-10-14T17:31:19.438Z,4.90
2022-10-14T17:33:46.816Z,3.37
2022-10-14T17:36:23.318Z,4.67
2022-10-14T17:38:52.317Z,5.43
2022-10-14T17:41:19.987Z,4.63
2022-10-14T17:43:49.557Z,4.80
2022-10-14T17:46:20.811Z,4.60
2022-10-14T17:48:53.852Z,5.90
2022-10-14T17:51:25.262Z,6.70
2022-10-14T17:54:00.234Z,6.20
2022-10-14T17:56:28.771Z,5.87
2022-10-14T17:58:57.526Z,5.57
2022-10-14T18:01:37.291Z,5.13
2022-10-14T18:04:11.578Z,5.80
2022-10-14T18:06:39.173Z,5.30
2022-10-14T18:09:09.733Z,6.07
2022-10-14T18:12:03.930Z,5.80
2022-10-14T18:14:28.512Z,7.07
2022-10-14T18:16:55.418Z,5.80
2022-10-14T18:19:22.519Z,6.57
2022-10-14T18:21:49.551Z,9.40
2022-10-14T18:24:16.504Z,6.33
2022-10-14T18:26:43.481Z,6.63
2022-10-14T18:29:10.397Z,9.53
2022-10-14T18:31:39.376Z,8.20
2022-10-14T18:34:10.017Z,6.47
2022-10-14T18:36:37.597Z,7.87
2022-10-14T18:39:07.928Z,7.20
2022-10-14T18:41:37.298Z,11.07
2022-10-14T18:44:05.560Z,12.57
2022-10-14T18:46:35.063Z,13.80
2022-10-14T18:49:03.825Z,11.00
2022-10-14T18:51:34.919Z,14.47
2022-10-14T18:54:05.715Z,9.20
2022-10-14T18:56:36.510Z,9.30
2022-10-14T18:59:10.406Z,8.13
2022-10-14T19:01:38.460Z,9.77
2022-10-14T19:04:07.353Z,9.40
2022-10-14T19:06:34.879Z,9.17
2022-10-14T19:09:02.200Z,9.07
2022-10-14T19:11:30.217Z,7.83
2022-10-14T19:13:59.291Z,9.20
2022-10-14T19:16:31.381Z,9.43
2022-10-14T19:19:21.616Z,12.73
2022-10-14T19:21:50.496Z,9.90
2022-10-14T19:24:17.843Z,8.30
2022-10-14T19:26:46.093Z,9.60
2022-10-14T19:29:15.292Z,10.17
2022-10-14T19:31:43.849Z,9.90
2022-10-14T19:34:14.074Z,9.97
2022-10-14T19:36:41.908Z,10.13
2022-10-14T19:39:11.973Z,10.43
2022-10-14T19:41:43.082Z,9.90
2022-10-14T19:44:11.832Z,10.37
2022-10-14T19:46:39.039Z,10.60
2022-10-14T19:49:06.395Z,10.33
2022-10-14T19:51:34.880Z,11.73
2022-10-14T19:54:02.290Z,11.87
2022-10-14T19:56:29.403Z,16.30
2022-10-14T19:58:58.419Z,12.10
2022-10-14T20:01:27.815Z,15.27
2022-10-14T20:03:54.845Z,14.17
2022-10-14T20:06:22.385Z,17.73
2022-10-14T20:08:50.186Z,15.17
2022-10-14T20:11:19.161Z,14.17
2022-10-14T20:13:46.645Z,16.40
2022-10-14T20:16:13.973Z,17.47
2022-10-14T20:18:41.557Z,18.70
2022-10-14T20:21:10.188Z,24.87
2022-10-14T20:23:40.479Z,19.10
2022-10-14T20:26:11.023Z,15.27
2022-10-14T20:28:39.007Z,15.03
2022-10-14T20:31:10.766Z,17.73
2022-10-14T20:33:37.747Z,14.73
2022-10-14T20:36:13.647Z,14.67
2022-10-14T20:38:41.749Z,24.33
2022-10-14T20:41:13.935Z,17.90
2022-10-14T20:43:42.621Z,14.17
2022-10-14T20:46:10.135Z,14.63
2022-10-14T20:48:37.548Z,14.73
2022-10-14T20:51:06.165Z,16.10
2022-10-14T20:53:33.528Z,14.20
2022-10-14T20:56:05.295Z,15.37
2022-10-14T20:58:32.728Z,20.30
2022-10-14T21:01:14.556Z,14.97
2022-10-14T21:03:43.279Z,17.87
2022-10-14T21:06:12.992Z,15.37
2022-10-14T21:08:40.350Z,16.80
2022-10-14T21:11:13.826Z,17.50
2022-10-14T21:13:47.875Z,16.83
2022-10-14T21:16:26.816Z,17.20
2022-10-14T21:18:58.822Z,17.27
2022-10-14T21:21:27.872Z,16.00
2022-10-14T21:23:55.718Z,16.53
2022-10-14T21:26:22.957Z,22.30
2022-10-14T21:28:49.935Z,17.47
2022-10-14T21:31:19.055Z,18.20
2022-10-14T21:33:47.859Z,16.40
2022-10-14T21:36:16.405Z,17.50
2022-10-14T21:38:44.767Z,20.90
2022-10-14T21:41:12.029Z,17.90
2022-10-14T21:43:39.485Z,17.20
2022-10-14T21:46:09.197Z,19.47
2022-10-14T21:48:36.235Z,16.33
2022-10-14T21:51:05.986Z,18.93
2022-10-14T21:53:33.671Z,23.70
2022-10-14T21:56:00.711Z,19.37
2022-10-14T21:58:30.809Z,19.00
2022-10-14T22:01:26.614Z,25.57
2022-10-14T22:03:55.505Z,20.30
2022-10-14T22:06:22.638Z,24.37
2022-10-14T22:08:52.614Z,24.57
2022-10-14T22:11:31.366Z,22.90
2022-10-14T22:14:00.371Z,27.27
2022-10-14T22:16:29.753Z,24.17
2022-10-14T22:18:59.680Z,23.80
2022-10-14T22:21:28.535Z,18.50
2022-10-14T22:23:56.907Z,25.00
2022-10-14T22:26:24.832Z,27.60
2022-10-14T22:29:01.692Z,25.37
2022-10-14T22:31:30.245Z,25.67
2022-10-14T22:33:58.144Z,24.17
2022-10-14T22:36:28.312Z,26.37
2022-10-14T22:38:56.888Z,27.27
2022-10-14T22:41:25.408Z,23.30
2022-10-14T22:43:57.765Z,27.40
2022-10-14T22:46:27.075Z,30.57
2022-10-14T22:48:56.964Z,40.17
2022-10-14T22:53:54.496Z,30.40
2022-10-14T22:56:24.234Z,27.80
2022-10-14T22:58:54.822Z,29.00
2022-10-14T23:01:24.061Z,32.70
2022-10-14T23:03:50.990Z,30.57
2022-10-14T23:06:18.237Z,29.57
2022-10-14T23:08:45.493Z,29.77
2022-10-14T23:11:17.202Z,30.20
2022-10-14T23:13:44.591Z,37.57
2022-10-14T23:16:14.988Z,29.07
2022-10-14T23:21:26.517Z,33.33
2022-10-14T23:23:56.925Z,27.57
2022-10-14T23:26:26.405Z,36.43
2022-10-14T23:28:57.918Z,36.23
2022-10-14T23:31:28.725Z,32.63
2022-10-14T23:33:58.226Z,31.47
2022-10-14T23:36:25.686Z,34.83
2022-10-14T23:38:52.990Z,31.90
2022-10-14T23:41:22.221Z,32.87
2022-10-14T23:43:51.203Z,28.47
2022-10-14T23:46:19.033Z,35.67
2022-10-14T23:48:55.811Z,33.70
2022-10-14T23:51:34.101Z,33.20
2022-10-14T23:54:01.211Z,30.87
2022-10-14T23:56:32.517Z,36.63
2022-10-14T23:59:00.377Z,31.87
